sensor_id;sensor_type;location;lat;lon;timestamp;P1;durP1;ratioP1;P2;durP2;ratioP2
47009;SDS011;59230;54.164;-3.124;2022-10-17T00:00:51;26.25;;;6.47;;
47009;SDS011;59230;54.164;-3.124;2022-10-17T00:03:17;39.25;;;7.32;;
47009;SDS011;59230;54.164;-3.124;2022-10-17T00:05:44;24.33;;;7.30;;
47009;SDS011;59230;54.164;-3.124;2022-10-17T00:08:12;39.47;;;8.95;;
47009;SDS011;59230;54.164;-3.124;2022-10-17T00:10:42;33.80;;;8.52;;
47009;SDS011;59230;54.164;-3.124;2022-10-17T00:13:09;36.38;;;8.70;;
47009;SDS011;59230;54.164;-3.124;2022-10-17T00:15:37;32.40;;;8.68;;
47009;SDS011;59230;54.164;-3.124;2022-10-17T00:18:09;40.17;;;10.23;;
47009;SDS011;59230;54.164;-3.124;2022-10-17T00:20:34;38.03;;;10.15;;
47009;SDS011;59230;54.164;-3.124;2022-10-17T00:23:00;25.15;;;9.10;;
47009;SDS011;59230;54.164;-3.124;2022-10-17T00:25:27;37.22;;;11.35;;
47009;SDS011;59230;54.164;-3.124;2022-10-17T00:27:54;37.47;;;12.20;;
47009;SDS011;59230;54.164;-3.124;2022-10-17T00:30:21;37.25;;;10.45;;
47009;SDS011;59230;54.164;-3.124;2022-10-17T00:32:49;38.95;;;12.77;;
47009;SDS011;59230;54.164;-3.124;2022-10-17T00:35:15;44.80;;;13.32;;
47009;SDS011;59230;54.164;-3.124;2022-10-17T00:37:42;57.22;;;14.77;;
47009;SDS011;59230;54.164;-3.124;2022-10-17T00:40:10;57.25;;;15.05;;
47009;SDS011;59230;54.164;-3.124;2022-10-17T00:42:37;39.63;;;13.30;;
47009;SDS011;59230;54.164;-3.124;2022-10-17T00:45:09;50.28;;;15.32;;
47009;SDS011;59230;54.164;-3.124;2022-10-17T00:47:40;45.30;;;15.65;;
47009;SDS011;59230;54.164;-3.124;2022-10-17T00:50:09;49.40;;;19.05;;
47009;SDS011;59230;54.164;-3.124;2022-10-17T00:52:37;55.03;;;20.23;;
47009;SDS011;59230;54.164;-3.124;2022-10-17T00:55:13;43.75;;;19.20;;
47009;SDS011;59230;54.164;-3.124;2022-10-17T00:57:42;62.00;;;20.75;;
47009;SDS011;59230;54.164;-3.124;2022-10-17T01:00:10;70.57;;;20.45;;
47009;SDS011;59230;54.164;-3.124;2022-10-17T01:02:36;61.33;;;19.05;;
47009;SDS011;59230;54.164;-3.124;2022-10-17T01:05:05;79.53;;;20.92;;
47009;SDS011;59230;54.164;-3.124;2022-10-17T01:07:37;57.47;;;17.90;;
47009;SDS011;59230;54.164;-3.124;2022-10-17T01:10:05;61.35;;;20.35;;
47009;SDS011;59230;54.164;-3.124;2022-10-17T01:17:51;50.17;;;17.40;;
47009;SDS011;59230;54.164;-3.124;2022-10-17T01:32:28;40.83;;;10.57;;
47009;SDS011;59230;54.164;-3.124;2022-10-17T01:35:21;41.72;;;9.88;;
47009;SDS011;59230;54.164;-3.124;2022-10-17T01:38:04;30.27;;;10.98;;
47009;SDS011;59230;54.164;-3.124;2022-10-17T01:40:38;42.55;;;10.75;;
47009;SDS011;59230;54.164;-3.124;2022-10-17T01:48:54;25.25;;;7.43;;
47009;SDS011;59230;54.164;-3.124;2022-10-17T01:51:27;27.52;;;7.10;;
47009;SDS011;59230;54.164;-3.124;2022-10-17T01:54:12;30.17;;;6.03;;
47009;SDS011;59230;54.164;-3.124;2022-10-17T01:56:44;26.80;;;5.65;;
47009;SDS011;59230;54.164;-3.124;2022-10-17T01:59:12;30.20;;;5.43;;
47009;SDS011;59230;54.164;-3.124;2022-10-17T02:01:46;32.92;;;5.32;;
47009;SDS011;59230;54.164;-3.124;2022-10-17T02:04:12;23.02;;;4.20;;
47009;SDS011;59230;54.164;-3.124;2022-10-17T02:06:39;32.20;;;4.72;;
47009;SDS011;59230;54.164;-3.124;2022-10-17T02:09:24;42.15;;;5.35;;
47009;SDS011;59230;54.164;-3.124;2022-10-17T02:20:32;27.52;;;4.97;;
47009;SDS011;59230;54.164;-3.124;2022-10-17T02:23:12;20.38;;;4.13;;
47009;SDS011;59230;54.164;-3.124;2022-10-17T02:31:42;33.22;;;4.97;;
47009;SDS011;59230;54.164;-3.124;2022-10-17T02:34:20;26.83;;;4.28;;
47009;SDS011;59230;54.164;-3.124;2022-10-17T02:36:55;25.55;;;3.97;;
47009;SDS011;59230;54.164;-3.124;2022-10-17T02:39:31;27.05;;;3.47;;
47009;SDS011;59230;54.164;-3.124;2022-10-17T02:42:06;18.70;;;4.00;;
47009;SDS011;59230;54.164;-3.124;2022-10-17T02:44:37;28.58;;;3.92;;
47009;SDS011;59230;54.164;-3.124;2022-10-17T02:47:26;33.50;;;3.72;;
47009;SDS011;59230;54.164;-3.124;2022-10-17T02:50:04;27.98;;;3.50;;
47009;SDS011;59230;54.164;-3.124;2022-10-17T02:52:54;26.25;;;3.40;;
47009;SDS011;59230;54.164;-3.124;2022-10-17T02:55:23;34.15;;;3.28;;
47009;SDS011;59230;54.164;-3.124;2022-10-17T02:57:57;29.13;;;3.47;;
47009;SDS011;59230;54.164;-3.124;2022-10-17T03:00:25;24.55;;;3.88;;
47009;SDS011;59230;54.164;-3.124;2022-10-17T03:02:54;16.98;;;3.72;;
47009;SDS011;59230;54.164;-3.124;2022-10-17T03:05:29;43.30;;;6.53;;
47009;SDS011;59230;54.164;-3.124;2022-10-17T03:07:56;41.30;;;3.72;;
47009;SDS011;59230;54.164;-3.124;2022-10-17T03:10:25;40.08;;;3.97;;
47009;SDS011;59230;54.164;-3.124;2022-10-17T03:12:51;29.10;;;3.28;;
47009;SDS011;59230;54.164;-3.124;2022-10-17T03:15:18;35.00;;;4.00;;
47009;SDS011;59230;54.164;-3.124;2022-10-17T03:17:47;36.38;;;4.30;;
47009;SDS011;59230;54.164;-3.124;2022-10-17T03:20:13;29.00;;;3.78;;
47009;SDS011;59230;54.164;-3.124;2022-10-17T03:22:40;39.08;;;3.67;;
47009;SDS011;59230;54.164;-3.124;2022-10-17T03:25:08;29.65;;;3.30;;
47009;SDS011;59230;54.164;-3.124;2022-10-17T03:27:34;29.70;;;3.03;;
47009;SDS011;59230;54.164;-3.124;2022-10-17T03:30:01;36.58;;;4.22;;
47009;SDS011;59230;54.164;-3.124;2022-10-17T03:32:32;30.23;;;3.30;;
47009;SDS011;59230;54.164;-3.124;2022-10-17T03:35:00;44.40;;;3.67;;
47009;SDS011;59230;54.164;-3.124;2022-10-17T03:37:26;39.05;;;4.05;;
47009;SDS011;59230;54.164;-3.124;2022-10-17T03:39:55;35.10;;;3.30;;
47009;SDS011;59230;54.164;-3.124;2022-10-17T03:42:21;39.80;;;3.53;;
47009;SDS011;59230;54.164;-3.124;2022-10-17T03:44:50;44.13;;;4.20;;
47009;SDS011;59230;54.164;-3.124;2022-10-17T03:47:15;44.03;;;4.18;;
47009;SDS011;59230;54.164;-3.124;2022-10-17T03:49:42;42.88;;;3.80;;
47009;SDS011;59230;54.164;-3.124;2022-10-17T03:52:13;33.13;;;3.67;;
47009;SDS011;59230;54.164;-3.124;2022-10-17T03:54:39;38.53;;;4.03;;
47009;SDS011;59230;54.164;-3.124;2022-10-17T03:57:07;47.67;;;4.05;;
47009;SDS011;59230;54.164;-3.124;2022-10-17T03:59:32;43.95;;;4.10;;
47009;SDS011;59230;54.164;-3.124;2022-10-17T04:01:58;51.28;;;4.28;;
47009;SDS011;59230;54.164;-3.124;2022-10-17T04:04:24;61.75;;;4.38;;
47009;SDS011;59230;54.164;-3.124;2022-10-17T04:06:51;36.55;;;3.95;;
47009;SDS011;59230;54.164;-3.124;2022-10-17T04:09:17;50.83;;;4.30;;
47009;SDS011;59230;54.164;-3.124;2022-10-17T04:11:45;49.70;;;3.97;;
47009;SDS011;59230;54.164;-3.124;2022-10-17T04:14:11;46.13;;;3.97;;
47009;SDS011;59230;54.164;-3.124;2022-10-17T04:16:41;49.78;;;4.70;;
47009;SDS011;59230;54.164;-3.124;2022-10-17T04:19:09;49.33;;;4.70;;
47009;SDS011;59230;54.164;-3.124;2022-10-17T04:21:37;52.97;;;4.70;;
47009;SDS011;59230;54.164;-3.124;2022-10-17T04:24:04;61.45;;;5.15;;
47009;SDS011;59230;54.164;-3.124;2022-10-17T04:26:31;34.20;;;4.43;;
47009;SDS011;59230;54.164;-3.124;2022-10-17T04:28:57;31.88;;;3.65;;
47009;SDS011;59230;54.164;-3.124;2022-10-17T04:31:24;49.47;;;4.55;;
47009;SDS011;59230;54.164;-3.124;2022-10-17T04:33:52;59.67;;;5.97;;
47009;SDS011;59230;54.164;-3.124;2022-10-17T04:36:18;47.38;;;4.82;;
47009;SDS011;59230;54.164;-3.124;2022-10-17T04:38:44;45.38;;;4.32;;
47009;SDS011;59230;54.164;-3.124;2022-10-17T04:41:10;57.65;;;6.68;;
47009;SDS011;59230;54.164;-3.124;2022-10-17T04:43:40;44.03;;;4.53;;
47009;SDS011;59230;54.164;-3.124;2022-10-17T04:46:07;63.05;;;5.70;;
47009;SDS011;59230;54.164;-3.124;2022-10-17T04:48:37;52.95;;;5.00;;
47009;SDS011;59230;54.164;-3.124;2022-10-17T04:51:06;51.38;;;5.00;;
47009;SDS011;59230;54.164;-3.124;2022-10-17T04:53:35;50.53;;;5.70;;
47009;SDS011;59230;54.164;-3.124;2022-10-17T04:56:12;52.60;;;5.80;;
47009;SDS011;59230;54.164;-3.124;2022-10-17T04:58:41;52.10;;;4.53;;
47009;SDS011;59230;54.164;-3.124;2022-10-17T05:01:12;46.72;;;4.80;;
47009;SDS011;59230;54.164;-3.124;2022-10-17T05:03:39;51.00;;;5.50;;
47009;SDS011;59230;54.164;-3.124;2022-10-17T05:06:06;56.35;;;5.95;;
47009;SDS011;59230;54.164;-3.124;2022-10-17T05:08:33;43.85;;;4.80;;
47009;SDS011;59230;54.164;-3.124;2022-10-17T05:11:00;47.70;;;4.75;;
47009;SDS011;59230;54.164;-3.124;2022-10-17T05:13:28;50.63;;;5.65;;
47009;SDS011;59230;54.164;-3.124;2022-10-17T05:15:57;58.35;;;5.47;;
47009;SDS011;59230;54.164;-3.124;2022-10-17T05:18:23;51.13;;;4.68;;
47009;SDS011;59230;54.164;-3.124;2022-10-17T05:20:50;67.07;;;5.13;;
47009;SDS011;59230;54.164;-3.124;2022-10-17T05:23:17;57.33;;;5.80;;
47009;SDS011;59230;54.164;-3.124;2022-10-17T05:25:44;36.53;;;4.97;;
47009;SDS011;59230;54.164;-3.124;2022-10-17T05:28:11;63.38;;;5.45;;
47009;SDS011;59230;54.164;-3.124;2022-10-17T05:30:38;74.65;;;5.05;;
47009;SDS011;59230;54.164;-3.124;2022-10-17T05:33:06;63.45;;;5.30;;
47009;SDS011;59230;54.164;-3.124;2022-10-17T05:35:35;58.70;;;5.80;;
47009;SDS011;59230;54.164;-3.124;2022-10-17T05:38:00;67.05;;;6.43;;
47009;SDS011;59230;54.164;-3.124;2022-10-17T05:40:26;53.83;;;6.25;;
47009;SDS011;59230;54.164;-3.124;2022-10-17T05:42:55;54.85;;;6.93;;
47009;SDS011;59230;54.164;-3.124;2022-10-17T05:45:22;58.72;;;5.93;;
47009;SDS011;59230;54.164;-3.124;2022-10-17T05:47:48;47.58;;;5.68;;
47009;SDS011;59230;54.164;-3.124;2022-10-17T05:50:13;53.35;;;6.13;;
47009;SDS011;59230;54.164;-3.124;2022-10-17T05:52:40;49.03;;;5.43;;
47009;SDS011;59230;54.164;-3.124;2022-10-17T05:55:06;51.05;;;5.45;;
47009;SDS011;59230;54.164;-3.124;2022-10-17T05:57:33;75.22;;;7.30;;
47009;SDS011;59230;54.164;-3.124;2022-10-17T05:59:59;68.68;;;7.32;;
47009;SDS011;59230;54.164;-3.124;2022-10-17T06:02:26;64.03;;;6.82;;
47009;SDS011;59230;54.164;-3.124;2022-10-17T06:04:56;59.05;;;6.72;;
47009;SDS011;59230;54.164;-3.124;2022-10-17T06:07:21;62.55;;;7.53;;
47009;SDS011;59230;54.164;-3.124;2022-10-17T06:09:48;79.30;;;7.25;;
47009;SDS011;59230;54.164;-3.124;2022-10-17T06:12:14;47.58;;;6.72;;
47009;SDS011;59230;54.164;-3.124;2022-10-17T06:14:40;60.80;;;6.65;;
47009;SDS011;59230;54.164;-3.124;2022-10-17T06:17:08;60.90;;;5.85;;
47009;SDS011;59230;54.164;-3.124;2022-10-17T06:19:33;70.38;;;7.63;;
47009;SDS011;59230;54.164;-3.124;2022-10-17T06:22:00;66.60;;;6.55;;
47009;SDS011;59230;54.164;-3.124;2022-10-17T06:24:25;69.25;;;8.02;;
47009;SDS011;59230;54.164;-3.124;2022-10-17T06:26:53;65.88;;;6.25;;
47009;SDS011;59230;54.164;-3.124;2022-10-17T06:29:21;76.80;;;7.18;;
47009;SDS011;59230;54.164;-3.124;2022-10-17T06:31:47;70.43;;;7.07;;
47009;SDS011;59230;54.164;-3.124;2022-10-17T06:34:12;79.25;;;7.63;;
47009;SDS011;59230;54.164;-3.124;2022-10-17T06:36:38;73.10;;;6.85;;
47009;SDS011;59230;54.164;-3.124;2022-10-17T06:39:06;58.67;;;6.63;;
47009;SDS011;59230;54.164;-3.124;2022-10-17T06:41:34;58.70;;;6.53;;
47009;SDS011;59230;54.164;-3.124;2022-10-17T06:44:00;67.18;;;6.07;;
47009;SDS011;59230;54.164;-3.124;2022-10-17T06:46:26;42.10;;;6.10;;
47009;SDS011;59230;54.164;-3.124;2022-10-17T06:48:55;60.33;;;6.47;;
47009;SDS011;59230;54.164;-3.124;2022-10-17T06:51:24;61.35;;;6.50;;
47009;SDS011;59230;54.164;-3.124;2022-10-17T06:53:49;67.30;;;8.90;;
47009;SDS011;59230;54.164;-3.124;2022-10-17T06:56:17;64.97;;;6.60;;
47009;SDS011;59230;54.164;-3.124;2022-10-17T06:58:43;60.92;;;7.53;;
47009;SDS011;59230;54.164;-3.124;2022-10-17T07:01:12;53.97;;;6.05;;
47009;SDS011;59230;54.164;-3.124;2022-10-17T07:03:38;71.63;;;8.07;;
47009;SDS011;59230;54.164;-3.124;2022-10-17T07:06:07;66.00;;;7.70;;
47009;SDS011;59230;54.164;-3.124;2022-10-17T07:08:36;69.82;;;7.07;;
47009;SDS011;59230;54.164;-3.124;2022-10-17T07:11:13;59.47;;;6.85;;
47009;SDS011;59230;54.164;-3.124;2022-10-17T07:13:41;43.75;;;6.10;;
47009;SDS011;59230;54.164;-3.124;2022-10-17T07:16:09;45.42;;;6.05;;
47009;SDS011;59230;54.164;-3.124;2022-10-17T07:18:38;64.32;;;7.43;;
47009;SDS011;59230;54.164;-3.124;2022-10-17T07:21:06;51.33;;;6.72;;
47009;SDS011;59230;54.164;-3.124;2022-10-17T07:23:32;53.15;;;5.90;;
47009;SDS011;59230;54.164;-3.124;2022-10-17T07:26:03;55.03;;;5.95;;
47009;SDS011;59230;54.164;-3.124;2022-10-17T07:28:33;63.40;;;7.13;;
47009;SDS011;59230;54.164;-3.124;2022-10-17T07:31:05;62.17;;;6.45;;
47009;SDS011;59230;54.164;-3.124;2022-10-17T07:33:32;69.13;;;7.87;;
47009;SDS011;59230;54.164;-3.124;2022-10-17T07:35:59;70.82;;;11.13;;
47009;SDS011;59230;54.164;-3.124;2022-10-17T07:38:26;67.68;;;11.85;;
47009;SDS011;59230;54.164;-3.124;2022-10-17T07:40:55;83.40;;;13.75;;
47009;SDS011;59230;54.164;-3.124;2022-10-17T07:43:25;58.85;;;8.15;;
47009;SDS011;59230;54.164;-3.124;2022-10-17T07:45:53;55.83;;;7.40;;
47009;SDS011;59230;54.164;-3.124;2022-10-17T07:48:21;57.30;;;6.88;;
47009;SDS011;59230;54.164;-3.124;2022-10-17T07:50:48;48.10;;;6.25;;
47009;SDS011;59230;54.164;-3.124;2022-10-17T07:53:15;52.92;;;6.70;;
47009;SDS011;59230;54.164;-3.124;2022-10-17T07:55:42;69.82;;;12.52;;
47009;SDS011;59230;54.164;-3.124;2022-10-17T07:58:14;50.80;;;7.43;;
47009;SDS011;59230;54.164;-3.124;2022-10-17T08:00:40;52.75;;;6.97;;
47009;SDS011;59230;54.164;-3.124;2022-10-17T08:03:09;58.00;;;6.50;;
47009;SDS011;59230;54.164;-3.124;2022-10-17T08:05:36;49.42;;;5.68;;
47009;SDS011;59230;54.164;-3.124;2022-10-17T08:08:02;54.90;;;6.30;;
47009;SDS011;59230;54.164;-3.124;2022-10-17T08:10:29;66.57;;;6.85;;
47009;SDS011;59230;54.164;-3.124;2022-10-17T08:12:54;48.30;;;6.47;;
47009;SDS011;59230;54.164;-3.124;2022-10-17T08:15:22;54.75;;;5.95;;
47009;SDS011;59230;54.164;-3.124;2022-10-17T08:17:52;60.25;;;7.88;;
47009;SDS011;59230;54.164;-3.124;2022-10-17T08:20:19;49.33;;;6.43;;
47009;SDS011;59230;54.164;-3.124;2022-10-17T08:22:51;41.92;;;6.07;;
47009;SDS011;59230;54.164;-3.124;2022-10-17T08:25:20;53.33;;;6.68;;
47009;SDS011;59230;54.164;-3.124;2022-10-17T08:27:46;56.75;;;6.45;;
47009;SDS011;59230;54.164;-3.124;2022-10-17T08:30:13;53.10;;;7.55;;
47009;SDS011;59230;54.164;-3.124;2022-10-17T08:32:41;56.33;;;6.22;;
47009;SDS011;59230;54.164;-3.124;2022-10-17T08:35:06;66.40;;;6.60;;
47009;SDS011;59230;54.164;-3.124;2022-10-17T08:37:33;54.72;;;6.10;;
47009;SDS011;59230;54.164;-3.124;2022-10-17T08:39:59;49.60;;;6.97;;
47009;SDS011;59230;54.164;-3.124;2022-10-17T08:42:49;61.00;;;7.10;;
47009;SDS011;59230;54.164;-3.124;2022-10-17T08:45:20;51.95;;;7.25;;
47009;SDS011;59230;54.164;-3.124;2022-10-17T08:48:03;57.72;;;7.63;;
47009;SDS011;59230;54.164;-3.124;2022-10-17T08:50:44;63.67;;;7.23;;
47009;SDS011;59230;54.164;-3.124;2022-10-17T08:53:39;41.47;;;6.65;;
47009;SDS011;59230;54.164;-3.124;2022-10-17T08:56:20;51.13;;;6.53;;
47009;SDS011;59230;54.164;-3.124;2022-10-17T08:58:50;56.55;;;7.00;;
47009;SDS011;59230;54.164;-3.124;2022-10-17T09:15:33;91.60;;;19.67;;
47009;SDS011;59230;54.164;-3.124;2022-10-17T09:18:25;51.72;;;10.00;;
47009;SDS011;59230;54.164;-3.124;2022-10-17T09:21:13;59.90;;;7.72;;
47009;SDS011;59230;54.164;-3.124;2022-10-17T09:23:55;46.53;;;7.20;;
47009;SDS011;59230;54.164;-3.124;2022-10-17T09:26:26;43.35;;;6.72;;
47009;SDS011;59230;54.164;-3.124;2022-10-17T09:28:56;43.00;;;6.15;;
47009;SDS011;59230;54.164;-3.124;2022-10-17T09:31:34;41.78;;;6.22;;
47009;SDS011;59230;54.164;-3.124;2022-10-17T09:34:08;45.45;;;7.07;;
47009;SDS011;59230;54.164;-3.124;2022-10-17T09:36:37;59.63;;;8.27;;
47009;SDS011;59230;54.164;-3.124;2022-10-17T09:39:09;53.08;;;7.00;;
47009;SDS011;59230;54.164;-3.124;2022-10-17T09:41:43;45.97;;;7.97;;
47009;SDS011;59230;54.164;-3.124;2022-10-17T09:44:22;44.92;;;5.95;;
47009;SDS011;59230;54.164;-3.124;2022-10-17T09:46:56;55.15;;;7.95;;
47009;SDS011;59230;54.164;-3.124;2022-10-17T09:49:41;49.72;;;7.78;;
47009;SDS011;59230;54.164;-3.124;2022-10-17T09:54:58;47.55;;;6.63;;
47009;SDS011;59230;54.164;-3.124;2022-10-17T10:00:33;47.03;;;6.95;;
47009;SDS011;59230;54.164;-3.124;2022-10-17T10:03:21;35.97;;;6.43;;
47009;SDS011;59230;54.164;-3.124;2022-10-17T10:06:04;56.25;;;7.78;;
47009;SDS011;59230;54.164;-3.124;2022-10-17T10:08:50;43.35;;;6.13;;
47009;SDS011;59230;54.164;-3.124;2022-10-17T10:11:18;54.08;;;6.63;;
47009;SDS011;59230;54.164;-3.124;2022-10-17T10:13:47;50.40;;;7.28;;
47009;SDS011;59230;54.164;-3.124;2022-10-17T10:16:18;57.75;;;7.57;;
47009;SDS011;59230;54.164;-3.124;2022-10-17T10:21:56;45.22;;;6.35;;
47009;SDS011;59230;54.164;-3.124;2022-10-17T10:24:25;47.95;;;7.28;;
47009;SDS011;59230;54.164;-3.124;2022-10-17T10:26:52;42.78;;;6.43;;
47009;SDS011;59230;54.164;-3.124;2022-10-17T10:29:35;38.10;;;5.82;;
47009;SDS011;59230;54.164;-3.124;2022-10-17T10:32:20;39.28;;;6.43;;
47009;SDS011;59230;54.164;-3.124;2022-10-17T10:34:53;39.97;;;5.88;;
47009;SDS011;59230;54.164;-3.124;2022-10-17T10:40:16;35.35;;;5.63;;
47009;SDS011;59230;54.164;-3.124;2022-10-17T10:42:51;38.90;;;5.93;;
47009;SDS011;59230;54.164;-3.124;2022-10-17T10:45:24;43.33;;;5.88;;
47009;SDS011;59230;54.164;-3.124;2022-10-17T10:48:02;43.75;;;6.22;;
47009;SDS011;59230;54.164;-3.124;2022-10-17T10:50:55;42.08;;;5.70;;
47009;SDS011;59230;54.164;-3.124;2022-10-17T10:53:36;42.42;;;6.65;;
47009;SDS011;59230;54.164;-3.124;2022-10-17T10:58:59;40.75;;;6.03;;
47009;SDS011;59230;54.164;-3.124;2022-10-17T11:07:00;44.05;;;7.55;;
47009;SDS011;59230;54.164;-3.124;2022-10-17T11:09:35;39.38;;;6.20;;
47009;SDS011;59230;54.164;-3.124;2022-10-17T11:12:27;41.85;;;6.78;;
47009;SDS011;59230;54.164;-3.124;2022-10-17T11:17:35;41.70;;;7.25;;
47009;SDS011;59230;54.164;-3.124;2022-10-17T11:20:43;41.30;;;5.57;;
47009;SDS011;59230;54.164;-3.124;2022-10-17T11:23:57;42.95;;;6.38;;
47009;SDS011;59230;54.164;-3.124;2022-10-17T11:26:27;42.47;;;6.10;;
47009;SDS011;59230;54.164;-3.124;2022-10-17T11:29:00;35.58;;;5.60;;
47009;SDS011;59230;54.164;-3.124;2022-10-17T11:31:40;45.15;;;6.85;;
47009;SDS011;59230;54.164;-3.124;2022-10-17T11:34:22;35.17;;;5.43;;
47009;SDS011;59230;54.164;-3.124;2022-10-17T11:36:51;43.80;;;6.13;;
47009;SDS011;59230;54.164;-3.124;2022-10-17T11:42:15;46.78;;;6.45;;
47009;SDS011;59230;54.164;-3.124;2022-10-17T11:44:49;42.65;;;5.85;;
47009;SDS011;59230;54.164;-3.124;2022-10-17T11:55:43;32.85;;;5.72;;
47009;SDS011;59230;54.164;-3.124;2022-10-17T12:01:14;35.15;;;6.53;;
47009;SDS011;59230;54.164;-3.124;2022-10-17T12:04:01;30.77;;;4.88;;
47009;SDS011;59230;54.164;-3.124;2022-10-17T12:10:03;36.17;;;5.70;;
47009;SDS011;59230;54.164;-3.124;2022-10-17T12:12:39;40.67;;;5.38;;
47009;SDS011;59230;54.164;-3.124;2022-10-17T12:17:53;46.05;;;6.63;;
47009;SDS011;59230;54.164;-3.124;2022-10-17T12:20:29;38.10;;;5.47;;
47009;SDS011;59230;54.164;-3.124;2022-10-17T12:44:48;43.17;;;5.88;;
47009;SDS011;59230;54.164;-3.124;2022-10-17T12:49:45;43.97;;;6.53;;
47009;SDS011;59230;54.164;-3.124;2022-10-17T12:57:34;33.72;;;4.60;;
47009;SDS011;59230;54.164;-3.124;2022-10-17T13:00:36;27.83;;;5.00;;
47009;SDS011;59230;54.164;-3.124;2022-10-17T13:03:18;27.42;;;4.78;;
47009;SDS011;59230;54.164;-3.124;2022-10-17T13:05:58;32.97;;;5.40;;
47009;SDS011;59230;54.164;-3.124;2022-10-17T13:08:28;34.63;;;6.22;;
47009;SDS011;59230;54.164;-3.124;2022-10-17T13:10:57;32.70;;;4.63;;
47009;SDS011;59230;54.164;-3.124;2022-10-17T13:16:26;42.92;;;5.60;;
47009;SDS011;59230;54.164;-3.124;2022-10-17T13:19:10;31.55;;;6.30;;
47009;SDS011;59230;54.164;-3.124;2022-10-17T13:21:49;37.25;;;5.93;;
47009;SDS011;59230;54.164;-3.124;2022-10-17T13:24:34;38.17;;;5.57;;
47009;SDS011;59230;54.164;-3.124;2022-10-17T13:27:03;32.13;;;4.93;;
47009;SDS011;59230;54.164;-3.124;2022-10-17T13:29:51;32.65;;;5.18;;
47009;SDS011;59230;54.164;-3.124;2022-10-17T13:32:20;41.55;;;10.95;;
47009;SDS011;59230;54.164;-3.124;2022-10-17T13:35:09;27.65;;;4.93;;
47009;SDS011;59230;54.164;-3.124;2022-10-17T13:37:41;29.90;;;3.97;;
47009;SDS011;59230;54.164;-3.124;2022-10-17T13:40:15;27.63;;;4.38;;
47009;SDS011;59230;54.164;-3.124;2022-10-17T13:42:46;30.88;;;4.57;;
47009;SDS011;59230;54.164;-3.124;2022-10-17T13:47:56;33.67;;;5.20;;
47009;SDS011;59230;54.164;-3.124;2022-10-17T13:50:32;32.20;;;4.72;;
47009;SDS011;59230;54.164;-3.124;2022-10-17T13:55:56;30.88;;;5.72;;
47009;SDS011;59230;54.164;-3.124;2022-10-17T13:58:40;33.25;;;5.47;;
47009;SDS011;59230;54.164;-3.124;2022-10-17T14:01:11;33.75;;;6.03;;
47009;SDS011;59230;54.164;-3.124;2022-10-17T14:03:46;27.88;;;6.00;;
47009;SDS011;59230;54.164;-3.124;2022-10-17T14:09:00;32.38;;;5.95;;
47009;SDS011;59230;54.164;-3.124;2022-10-17T14:11:37;37.15;;;5.50;;
47009;SDS011;59230;54.164;-3.124;2022-10-17T14:14:18;32.92;;;6.15;;
47009;SDS011;59230;54.164;-3.124;2022-10-17T14:16:46;24.40;;;4.57;;
47009;SDS011;59230;54.164;-3.124;2022-10-17T14:19:22;36.83;;;5.35;;
47009;SDS011;59230;54.164;-3.124;2022-10-17T14:22:17;28.77;;;5.20;;
47009;SDS011;59230;54.164;-3.124;2022-10-17T14:24:53;36.72;;;7.13;;
47009;SDS011;59230;54.164;-3.124;2022-10-17T14:27:31;35.72;;;5.10;;
47009;SDS011;59230;54.164;-3.124;2022-10-17T14:32:59;31.08;;;5.78;;
47009;SDS011;59230;54.164;-3.124;2022-10-17T14:35:29;36.70;;;5.88;;
47009;SDS011;59230;54.164;-3.124;2022-10-17T14:38:04;34.38;;;5.63;;
47009;SDS011;59230;54.164;-3.124;2022-10-17T14:40:32;38.33;;;5.18;;
47009;SDS011;59230;54.164;-3.124;2022-10-17T14:43:02;27.90;;;5.25;;
47009;SDS011;59230;54.164;-3.124;2022-10-17T14:45:33;34.97;;;4.63;;
47009;SDS011;59230;54.164;-3.124;2022-10-17T14:53:41;29.40;;;4.40;;
47009;SDS011;59230;54.164;-3.124;2022-10-17T14:56:37;34.90;;;4.93;;
47009;SDS011;59230;54.164;-3.124;2022-10-17T14:59:23;27.33;;;4.70;;
47009;SDS011;59230;54.164;-3.124;2022-10-17T15:01:55;31.98;;;5.22;;
47009;SDS011;59230;54.164;-3.124;2022-10-17T15:04:31;36.28;;;5.15;;
47009;SDS011;59230;54.164;-3.124;2022-10-17T15:07:01;35.45;;;5.80;;
47009;SDS011;59230;54.164;-3.124;2022-10-17T15:09:27;36.03;;;5.15;;
47009;SDS011;59230;54.164;-3.124;2022-10-17T15:11:55;39.28;;;5.28;;
47009;SDS011;59230;54.164;-3.124;2022-10-17T15:14:28;40.10;;;6.25;;
47009;SDS011;59230;54.164;-3.124;2022-10-17T15:16:56;32.50;;;4.90;;
47009;SDS011;59230;54.164;-3.124;2022-10-17T15:19:23;38.40;;;5.40;;
47009;SDS011;59230;54.164;-3.124;2022-10-17T15:21:51;34.28;;;4.55;;
47009;SDS011;59230;54.164;-3.124;2022-10-17T15:24:19;33.90;;;5.10;;
47009;SDS011;59230;54.164;-3.124;2022-10-17T15:26:44;35.65;;;5.35;;
47009;SDS011;59230;54.164;-3.124;2022-10-17T15:29:14;33.53;;;5.40;;
47009;SDS011;59230;54.164;-3.124;2022-10-17T15:31:43;33.03;;;5.75;;
47009;SDS011;59230;54.164;-3.124;2022-10-17T15:34:10;34.13;;;5.25;;
47009;SDS011;59230;54.164;-3.124;2022-10-17T15:36:40;34.28;;;5.78;;
47009;SDS011;59230;54.164;-3.124;2022-10-17T15:39:12;33.42;;;6.15;;
47009;SDS011;59230;54.164;-3.124;2022-10-17T15:41:40;35.25;;;5.38;;
47009;SDS011;59230;54.164;-3.124;2022-10-17T15:44:09;33.88;;;5.05;;
47009;SDS011;59230;54.164;-3.124;2022-10-17T15:46:34;38.38;;;5.20;;
47009;SDS011;59230;54.164;-3.124;2022-10-17T15:49:06;35.17;;;5.53;;
47009;SDS011;59230;54.164;-3.124;2022-10-17T15:51:37;37.38;;;5.60;;
47009;SDS011;59230;54.164;-3.124;2022-10-17T15:54:04;38.90;;;6.20;;
47009;SDS011;59230;54.164;-3.124;2022-10-17T15:56:45;30.27;;;4.50;;
47009;SDS011;59230;54.164;-3.124;2022-10-17T15:59:26;40.28;;;4.88;;
47009;SDS011;59230;54.164;-3.124;2022-10-17T16:04:26;41.78;;;6.28;;
47009;SDS011;59230;54.164;-3.124;2022-10-17T16:06:55;31.50;;;4.80;;
47009;SDS011;59230;54.164;-3.124;2022-10-17T16:09:24;33.20;;;4.93;;
47009;SDS011;59230;54.164;-3.124;2022-10-17T16:11:50;44.85;;;5.45;;
47009;SDS011;59230;54.164;-3.124;2022-10-17T16:14:16;43.42;;;5.65;;
47009;SDS011;59230;54.164;-3.124;2022-10-17T16:16:47;42.90;;;5.60;;
47009;SDS011;59230;54.164;-3.124;2022-10-17T16:19:13;37.42;;;6.43;;
47009;SDS011;59230;54.164;-3.124;2022-10-17T16:21:44;31.08;;;4.63;;
47009;SDS011;59230;54.164;-3.124;2022-10-17T16:24:11;37.83;;;4.68;;
47009;SDS011;59230;54.164;-3.124;2022-10-17T16:26:42;30.98;;;4.93;;
47009;SDS011;59230;54.164;-3.124;2022-10-17T16:29:10;40.00;;;4.47;;
47009;SDS011;59230;54.164;-3.124;2022-10-17T16:31:38;40.17;;;5.25;;
47009;SDS011;59230;54.164;-3.124;2022-10-17T16:34:08;33.03;;;4.97;;
47009;SDS011;59230;54.164;-3.124;2022-10-17T16:36:40;41.70;;;5.78;;
47009;SDS011;59230;54.164;-3.124;2022-10-17T16:39:08;39.95;;;5.20;;
47009;SDS011;59230;54.164;-3.124;2022-10-17T16:41:35;41.30;;;5.15;;
47009;SDS011;59230;54.164;-3.124;2022-10-17T16:44:04;38.05;;;8.02;;
47009;SDS011;59230;54.164;-3.124;2022-10-17T16:46:34;35.67;;;5.53;;
47009;SDS011;59230;54.164;-3.124;2022-10-17T16:49:03;41.10;;;5.38;;
47009;SDS011;59230;54.164;-3.124;2022-10-17T16:51:31;53.83;;;12.93;;
47009;SDS011;59230;54.164;-3.124;2022-10-17T16:54:01;63.55;;;17.25;;
47009;SDS011;59230;54.164;-3.124;2022-10-17T16:56:29;40.47;;;7.47;;
47009;SDS011;59230;54.164;-3.124;2022-10-17T16:58:58;40.40;;;6.45;;
47009;SDS011;59230;54.164;-3.124;2022-10-17T17:01:26;45.05;;;7.30;;
47009;SDS011;59230;54.164;-3.124;2022-10-17T17:03:56;47.33;;;6.65;;
47009;SDS011;59230;54.164;-3.124;2022-10-17T17:06:28;39.42;;;6.22;;
47009;SDS011;59230;54.164;-3.124;2022-10-17T17:08:57;44.20;;;7.05;;
47009;SDS011;59230;54.164;-3.124;2022-10-17T17:11:24;34.28;;;5.40;;